SWR1102 LSZH-EDDM
Flight info
| Callsign | SWR1102 |
|---|---|
| Flight time | 0h 36m |
| Altitude | 22000 |
| Route | DEGES Z6 NUNRI/N0371F210 T103 BETOS BETOS1B |
| Aircraft | A321/M-SDE3FGHIRWY/LB1 |
Departure
| Time | 2026-05-06 08:13 |
|---|---|
| Airport | Zürich Airport (LSZH) |
Arrival
| Time | 2026-05-06 08:49 |
|---|---|
| Airport | Munich Airport (EDDM) |
| Time | Latitude | Longitude | Altitude | Speed | Heading |
|---|---|---|---|---|---|
| 2026-05-06 07:44 | 47.45333 | 8.55806 | 1410 ft | 0 kts | 6° |
| 2026-05-06 08:02 | 47.45316 | 8.55804 | 1408 ft | 4 kts | 6° |
| 2026-05-06 08:02 | 47.45295 | 8.55800 | 1411 ft | 4 kts | 4° |
| 2026-05-06 08:02 | 47.45269 | 8.55802 | 1411 ft | 4 kts | 332° |
| 2026-05-06 08:03 | 47.45258 | 8.55825 | 1413 ft | 4 kts | 276° |
| 2026-05-06 08:03 | 47.45256 | 8.55855 | 1413 ft | 0 kts | 276° |
| 2026-05-06 08:05 | 47.45257 | 8.55834 | 1410 ft | 4 kts | 276° |
| 2026-05-06 08:05 | 47.45265 | 8.55720 | 1410 ft | 17 kts | 276° |
| 2026-05-06 08:06 | 47.45276 | 8.55603 | 1409 ft | 7 kts | 287° |
| 2026-05-06 08:06 | 47.45315 | 8.55553 | 1410 ft | 11 kts | 330° |
| 2026-05-06 08:06 | 47.45400 | 8.55492 | 1408 ft | 15 kts | 335° |
| 2026-05-06 08:06 | 47.45497 | 8.55425 | 1407 ft | 16 kts | 335° |
| 2026-05-06 08:07 | 47.45601 | 8.55352 | 1403 ft | 17 kts | 334° |
| 2026-05-06 08:07 | 47.45654 | 8.55346 | 1399 ft | 6 kts | 29° |
| 2026-05-06 08:07 | 47.45669 | 8.55388 | 1403 ft | 5 kts | 76° |
| 2026-05-06 08:07 | 47.45665 | 8.55486 | 1404 ft | 15 kts | 96° |
| 2026-05-06 08:08 | 47.45654 | 8.55640 | 1404 ft | 14 kts | 96° |
| 2026-05-06 08:08 | 47.45644 | 8.55776 | 1413 ft | 15 kts | 96° |
| 2026-05-06 08:08 | 47.45632 | 8.55955 | 1414 ft | 20 kts | 96° |
| 2026-05-06 08:08 | 47.45618 | 8.56147 | 1418 ft | 18 kts | 96° |
| 2026-05-06 08:09 | 47.45606 | 8.56319 | 1416 ft | 16 kts | 96° |
| 2026-05-06 08:09 | 47.45595 | 8.56473 | 1414 ft | 15 kts | 96° |
| 2026-05-06 08:09 | 47.45586 | 8.56604 | 1417 ft | 12 kts | 95° |
| 2026-05-06 08:09 | 47.45578 | 8.56712 | 1423 ft | 9 kts | 96° |
| 2026-05-06 08:10 | 47.45572 | 8.56803 | 1420 ft | 11 kts | 96° |
| 2026-05-06 08:10 | 47.45563 | 8.56920 | 1420 ft | 1 kts | 96° |
| 2026-05-06 08:10 | 47.45564 | 8.56953 | 1421 ft | 7 kts | 82° |
| 2026-05-06 08:10 | 47.45591 | 8.57007 | 1423 ft | 4 kts | 29° |
| 2026-05-06 08:11 | 47.45604 | 8.57014 | 1424 ft | 4 kts | 19° |
| 2026-05-06 08:11 | 47.45649 | 8.57002 | 1425 ft | 6 kts | 314° |
| 2026-05-06 08:11 | 47.45665 | 8.56956 | 1424 ft | 3 kts | 287° |
| 2026-05-06 08:11 | 47.45669 | 8.56920 | 1424 ft | 5 kts | 276° |
| 2026-05-06 08:12 | 47.45683 | 8.56709 | 1421 ft | 55 kts | 276° |
| 2026-05-06 08:12 | 47.45743 | 8.55859 | 1414 ft | 119 kts | 276° |
| 2026-05-06 08:12 | 47.45841 | 8.54503 | 1396 ft | 167 kts | 277° |
| 2026-05-06 08:12 | 47.45954 | 8.52661 | 1826 ft | 175 kts | 275° |
| 2026-05-06 08:13 | 47.46053 | 8.50910 | 2635 ft | 172 kts | 276° |
| 2026-05-06 08:13 | 47.46184 | 8.49065 | 3155 ft | 188 kts | 275° |
| 2026-05-06 08:13 | 47.45896 | 8.47120 | 3448 ft | 211 kts | 243° |
| 2026-05-06 08:13 | 47.45156 | 8.45171 | 4004 ft | 222 kts | 241° |
| 2026-05-06 08:14 | 47.44398 | 8.43163 | 4895 ft | 222 kts | 242° |
| 2026-05-06 08:14 | 47.43664 | 8.41173 | 5703 ft | 225 kts | 241° |
| 2026-05-06 08:14 | 47.42915 | 8.39117 | 6404 ft | 233 kts | 238° |
| 2026-05-06 08:14 | 47.41755 | 8.37335 | 6764 ft | 255 kts | 208° |
| 2026-05-06 08:15 | 47.39999 | 8.36685 | 7214 ft | 270 kts | 175° |
| 2026-05-06 08:15 | 47.38231 | 8.37612 | 7915 ft | 275 kts | 142° |
| 2026-05-06 08:15 | 47.37092 | 8.39844 | 8664 ft | 280 kts | 110° |
| 2026-05-06 08:15 | 47.36871 | 8.42721 | 9429 ft | 286 kts | 90° |
| 2026-05-06 08:16 | 47.36994 | 8.45674 | 10118 ft | 294 kts | 87° |
| 2026-05-06 08:16 | 47.37201 | 8.48784 | 10315 ft | 317 kts | 86° |
| 2026-05-06 08:16 | 47.37448 | 8.52104 | 10607 ft | 333 kts | 86° |
| 2026-05-06 08:16 | 47.37698 | 8.55533 | 11205 ft | 338 kts | 86° |
| 2026-05-06 08:17 | 47.37934 | 8.59013 | 11870 ft | 342 kts | 88° |
| 2026-05-06 08:17 | 47.38151 | 8.62522 | 12554 ft | 346 kts | 88° |
| 2026-05-06 08:17 | 47.38289 | 8.64879 | 13009 ft | 348 kts | 89° |
| 2026-05-06 08:17 | 47.38557 | 8.69668 | 13879 ft | 353 kts | 89° |
| 2026-05-06 08:18 | 47.38756 | 8.73294 | 14472 ft | 357 kts | 89° |
| 2026-05-06 08:18 | 47.38955 | 8.76953 | 14990 ft | 362 kts | 90° |
| 2026-05-06 08:18 | 47.39155 | 8.80698 | 15491 ft | 369 kts | 90° |
| 2026-05-06 08:18 | 47.39289 | 8.83222 | 15855 ft | 372 kts | 90° |
| 2026-05-06 08:19 | 47.39491 | 8.87033 | 16428 ft | 376 kts | 90° |
| 2026-05-06 08:19 | 47.39697 | 8.90906 | 17008 ft | 379 kts | 90° |
| 2026-05-06 08:19 | 47.39905 | 8.94798 | 17560 ft | 383 kts | 90° |
| 2026-05-06 08:19 | 47.40117 | 8.98723 | 18110 ft | 386 kts | 90° |
| 2026-05-06 08:20 | 47.40329 | 9.02706 | 18591 ft | 390 kts | 91° |
| 2026-05-06 08:20 | 47.40539 | 9.06701 | 19066 ft | 393 kts | 91° |
| 2026-05-06 08:20 | 47.40747 | 9.10742 | 19550 ft | 395 kts | 91° |
| 2026-05-06 08:20 | 47.40957 | 9.14783 | 20039 ft | 397 kts | 91° |
| 2026-05-06 08:21 | 47.41177 | 9.18869 | 20478 ft | 400 kts | 89° |
| 2026-05-06 08:21 | 47.41698 | 9.22945 | 20865 ft | 409 kts | 80° |
| 2026-05-06 08:21 | 47.42404 | 9.27038 | 21290 ft | 412 kts | 81° |
| 2026-05-06 08:21 | 47.43104 | 9.31136 | 21713 ft | 413 kts | 81° |
| 2026-05-06 08:22 | 47.43795 | 9.35239 | 21808 ft | 409 kts | 81° |
| 2026-05-06 08:22 | 47.44473 | 9.39295 | 21828 ft | 404 kts | 81° |
| 2026-05-06 08:22 | 47.45140 | 9.43319 | 21832 ft | 403 kts | 81° |
| 2026-05-06 08:22 | 47.45800 | 9.47328 | 21838 ft | 402 kts | 81° |
| 2026-05-06 08:23 | 47.46460 | 9.51347 | 21837 ft | 402 kts | 81° |
| 2026-05-06 08:23 | 47.47118 | 9.55354 | 21846 ft | 402 kts | 81° |
| 2026-05-06 08:23 | 47.47778 | 9.59380 | 21832 ft | 402 kts | 81° |
| 2026-05-06 08:23 | 47.48435 | 9.63387 | 21812 ft | 402 kts | 81° |
| 2026-05-06 08:24 | 47.49098 | 9.67423 | 21831 ft | 404 kts | 81° |
| 2026-05-06 08:24 | 47.49760 | 9.71453 | 21835 ft | 404 kts | 81° |
| 2026-05-06 08:24 | 47.50421 | 9.75489 | 21843 ft | 404 kts | 81° |
| 2026-05-06 08:24 | 47.51081 | 9.79543 | 21840 ft | 405 kts | 81° |
| 2026-05-06 08:25 | 47.51737 | 9.83580 | 21838 ft | 405 kts | 81° |
| 2026-05-06 08:25 | 47.52396 | 9.87638 | 21823 ft | 404 kts | 81° |
| 2026-05-06 08:25 | 47.53048 | 9.91675 | 21828 ft | 404 kts | 81° |
| 2026-05-06 08:25 | 47.53698 | 9.95715 | 21826 ft | 404 kts | 81° |
| 2026-05-06 08:26 | 47.54349 | 9.99775 | 21822 ft | 404 kts | 81° |
| 2026-05-06 08:26 | 47.54999 | 10.03824 | 21822 ft | 405 kts | 81° |
| 2026-05-06 08:26 | 47.55651 | 10.07880 | 21799 ft | 404 kts | 81° |
| 2026-05-06 08:26 | 47.56300 | 10.11927 | 21794 ft | 405 kts | 81° |
| 2026-05-06 08:27 | 47.56947 | 10.15988 | 21800 ft | 406 kts | 81° |
| 2026-05-06 08:27 | 47.57596 | 10.20072 | 21803 ft | 406 kts | 81° |
| 2026-05-06 08:27 | 47.58243 | 10.24137 | 21808 ft | 406 kts | 81° |
| 2026-05-06 08:27 | 47.58889 | 10.28206 | 21794 ft | 407 kts | 81° |
| 2026-05-06 08:28 | 47.59535 | 10.32296 | 21798 ft | 407 kts | 81° |
| 2026-05-06 08:28 | 47.60177 | 10.36373 | 21803 ft | 407 kts | 81° |
| 2026-05-06 08:28 | 47.60810 | 10.40414 | 21805 ft | 407 kts | 81° |
| 2026-05-06 08:28 | 47.61459 | 10.44568 | 21805 ft | 408 kts | 81° |
| 2026-05-06 08:29 | 47.62099 | 10.48665 | 21802 ft | 408 kts | 81° |
| 2026-05-06 08:29 | 47.62737 | 10.52751 | 21779 ft | 408 kts | 81° |
| 2026-05-06 08:29 | 47.63364 | 10.56791 | 21780 ft | 407 kts | 82° |
| 2026-05-06 08:29 | 47.64006 | 10.60935 | 21789 ft | 408 kts | 82° |
| 2026-05-06 08:30 | 47.64638 | 10.65034 | 21788 ft | 408 kts | 82° |
| 2026-05-06 08:30 | 47.65260 | 10.69079 | 21793 ft | 408 kts | 82° |
| 2026-05-06 08:30 | 47.65890 | 10.73188 | 21802 ft | 408 kts | 82° |
| 2026-05-06 08:30 | 47.66513 | 10.77276 | 21801 ft | 408 kts | 82° |
| 2026-05-06 08:31 | 47.67143 | 10.81391 | 21804 ft | 409 kts | 81° |
| 2026-05-06 08:31 | 47.68030 | 10.85420 | 21806 ft | 414 kts | 70° |
| 2026-05-06 08:31 | 47.69422 | 10.89183 | 21811 ft | 419 kts | 58° |
| 2026-05-06 08:31 | 47.71254 | 10.92494 | 21577 ft | 412 kts | 46° |
| 2026-05-06 08:32 | 47.73430 | 10.95236 | 21321 ft | 410 kts | 39° |
| 2026-05-06 08:32 | 47.75667 | 10.97861 | 21070 ft | 409 kts | 39° |
| 2026-05-06 08:32 | 47.77889 | 11.00483 | 20807 ft | 407 kts | 39° |
| 2026-05-06 08:32 | 47.80091 | 11.03098 | 20524 ft | 404 kts | 39° |
| 2026-05-06 08:33 | 47.82278 | 11.05712 | 20286 ft | 401 kts | 39° |
| 2026-05-06 08:33 | 47.84448 | 11.08308 | 20036 ft | 399 kts | 39° |
| 2026-05-06 08:33 | 47.86606 | 11.10887 | 19787 ft | 398 kts | 39° |
| 2026-05-06 08:33 | 47.88744 | 11.13440 | 19487 ft | 390 kts | 39° |
| 2026-05-06 08:34 | 47.90856 | 11.15952 | 19055 ft | 386 kts | 39° |
| 2026-05-06 08:34 | 47.95016 | 11.20896 | 18180 ft | 379 kts | 39° |
| 2026-05-06 08:34 | 47.97063 | 11.23335 | 17717 ft | 375 kts | 39° |
| 2026-05-06 08:35 | 47.99082 | 11.25744 | 17309 ft | 370 kts | 39° |
| 2026-05-06 08:35 | 48.01075 | 11.28130 | 16897 ft | 364 kts | 39° |
| 2026-05-06 08:35 | 48.03041 | 11.30489 | 16491 ft | 360 kts | 39° |
| 2026-05-06 08:35 | 48.04978 | 11.32812 | 16088 ft | 355 kts | 39° |
| 2026-05-06 08:36 | 48.06891 | 11.35104 | 15701 ft | 350 kts | 39° |
| 2026-05-06 08:36 | 48.08780 | 11.37367 | 15304 ft | 346 kts | 40° |
| 2026-05-06 08:36 | 48.10652 | 11.39611 | 14906 ft | 342 kts | 40° |
| 2026-05-06 08:36 | 48.12496 | 11.41827 | 14519 ft | 338 kts | 40° |
| 2026-05-06 08:37 | 48.14320 | 11.44021 | 14129 ft | 335 kts | 40° |
| 2026-05-06 08:37 | 48.16128 | 11.46203 | 13740 ft | 332 kts | 40° |
| 2026-05-06 08:37 | 48.17919 | 11.48360 | 13341 ft | 329 kts | 40° |
| 2026-05-06 08:37 | 48.19658 | 11.50451 | 12933 ft | 325 kts | 40° |
| 2026-05-06 08:38 | 48.21376 | 11.52622 | 12543 ft | 320 kts | 47° |
| 2026-05-06 08:38 | 48.22755 | 11.55184 | 12165 ft | 314 kts | 60° |
| 2026-05-06 08:38 | 48.23724 | 11.58088 | 11766 ft | 309 kts | 73° |
| 2026-05-06 08:38 | 48.24267 | 11.61173 | 11408 ft | 304 kts | 85° |
| 2026-05-06 08:39 | 48.24520 | 11.64352 | 11019 ft | 302 kts | 86° |
| 2026-05-06 08:39 | 48.24760 | 11.67426 | 10662 ft | 301 kts | 86° |
| 2026-05-06 08:39 | 48.25012 | 11.70585 | 10291 ft | 299 kts | 86° |
| 2026-05-06 08:39 | 48.25252 | 11.73619 | 10190 ft | 298 kts | 86° |
| 2026-05-06 08:40 | 48.25494 | 11.76704 | 10069 ft | 298 kts | 86° |
| 2026-05-06 08:40 | 48.25732 | 11.79788 | 9829 ft | 299 kts | 86° |
| 2026-05-06 08:40 | 48.25970 | 11.82913 | 9326 ft | 299 kts | 86° |
| 2026-05-06 08:40 | 48.26203 | 11.85982 | 8917 ft | 295 kts | 86° |
| 2026-05-06 08:41 | 48.26434 | 11.89009 | 8189 ft | 289 kts | 86° |
| 2026-05-06 08:41 | 48.26663 | 11.92009 | 7599 ft | 283 kts | 86° |
| 2026-05-06 08:41 | 48.26880 | 11.94888 | 7095 ft | 280 kts | 86° |
| 2026-05-06 08:41 | 48.27100 | 11.97749 | 6421 ft | 274 kts | 86° |
| 2026-05-06 08:42 | 48.27312 | 12.00564 | 5695 ft | 268 kts | 85° |
| 2026-05-06 08:42 | 48.27519 | 12.03332 | 5520 ft | 269 kts | 85° |
| 2026-05-06 08:42 | 48.27741 | 12.06102 | 5393 ft | 262 kts | 80° |
| 2026-05-06 08:42 | 48.28374 | 12.08511 | 5258 ft | 238 kts | 57° |
| 2026-05-06 08:43 | 48.29500 | 12.10304 | 5133 ft | 236 kts | 36° |
| 2026-05-06 08:43 | 48.30970 | 12.11344 | 5028 ft | 235 kts | 14° |
| 2026-05-06 08:43 | 48.32594 | 12.11496 | 5000 ft | 236 kts | 352° |
| 2026-05-06 08:43 | 48.34146 | 12.10742 | 5013 ft | 236 kts | 330° |
| 2026-05-06 08:44 | 48.35406 | 12.09185 | 5004 ft | 235 kts | 308° |
| 2026-05-06 08:44 | 48.36181 | 12.07040 | 4903 ft | 236 kts | 284° |
| 2026-05-06 08:44 | 48.36306 | 12.04666 | 4657 ft | 226 kts | 263° |
| 2026-05-06 08:44 | 48.36131 | 12.02346 | 4365 ft | 220 kts | 262° |
| 2026-05-06 08:45 | 48.35958 | 12.00082 | 4074 ft | 215 kts | 263° |
| 2026-05-06 08:45 | 48.35793 | 11.97887 | 3803 ft | 206 kts | 263° |
| 2026-05-06 08:45 | 48.35640 | 11.95834 | 3531 ft | 191 kts | 263° |
| 2026-05-06 08:45 | 48.35496 | 11.93916 | 3300 ft | 177 kts | 263° |
| 2026-05-06 08:46 | 48.35364 | 11.92160 | 3062 ft | 162 kts | 263° |
| 2026-05-06 08:46 | 48.35242 | 11.90534 | 2849 ft | 154 kts | 263° |
| 2026-05-06 08:46 | 48.35123 | 11.88959 | 2645 ft | 150 kts | 263° |
| 2026-05-06 08:46 | 48.35005 | 11.87403 | 2445 ft | 148 kts | 263° |
| 2026-05-06 08:47 | 48.34889 | 11.85865 | 2237 ft | 148 kts | 263° |
| 2026-05-06 08:47 | 48.34768 | 11.84355 | 2022 ft | 147 kts | 263° |
| 2026-05-06 08:47 | 48.34650 | 11.82806 | 1806 ft | 146 kts | 263° |
| 2026-05-06 08:47 | 48.34559 | 11.81592 | 1667 ft | 147 kts | 263° |
| 2026-05-06 08:48 | 48.34498 | 11.80760 | 1577 ft | 147 kts | 264° |
| 2026-05-06 08:48 | 48.34386 | 11.79269 | 1486 ft | 139 kts | 263° |
| 2026-05-06 08:48 | 48.34311 | 11.78268 | 1486 ft | 50 kts | 263° |
| 2026-05-06 08:49 | 48.34328 | 11.77982 | 1482 ft | 20 kts | 291° |
| 2026-05-06 08:49 | 48.34373 | 11.77792 | 1481 ft | 19 kts | 293° |
| 2026-05-06 08:49 | 48.34424 | 11.77617 | 1474 ft | 18 kts | 291° |
| 2026-05-06 08:49 | 48.34484 | 11.77460 | 1480 ft | 17 kts | 327° |
| 2026-05-06 08:50 | 48.34594 | 11.77427 | 1483 ft | 16 kts | 359° |
| 2026-05-06 08:50 | 48.34635 | 11.77535 | 1483 ft | 12 kts | 80° |
| 2026-05-06 08:50 | 48.34645 | 11.77657 | 1481 ft | 12 kts | 85° |
| 2026-05-06 08:50 | 48.34654 | 11.77777 | 1478 ft | 11 kts | 83° |
| 2026-05-06 08:51 | 48.34663 | 11.77893 | 1485 ft | 11 kts | 83° |
| 2026-05-06 08:51 | 48.34671 | 11.78004 | 1485 ft | 11 kts | 85° |
| 2026-05-06 08:51 | 48.34680 | 11.78116 | 1485 ft | 13 kts | 83° |
| 2026-05-06 08:51 | 48.34695 | 11.78313 | 1481 ft | 25 kts | 83° |
| 2026-05-06 08:52 | 48.34717 | 11.78596 | 1485 ft | 28 kts | 83° |
| 2026-05-06 08:52 | 48.34740 | 11.78891 | 1479 ft | 28 kts | 83° |
| 2026-05-06 08:52 | 48.34762 | 11.79177 | 1485 ft | 28 kts | 83° |
| 2026-05-06 08:52 | 48.34784 | 11.79465 | 1474 ft | 24 kts | 83° |
| 2026-05-06 08:53 | 48.34860 | 11.79555 | 1481 ft | 15 kts | 356° |
| 2026-05-06 08:53 | 48.34965 | 11.79539 | 1485 ft | 15 kts | 353° |
| 2026-05-06 08:53 | 48.35068 | 11.79521 | 1484 ft | 15 kts | 356° |
| 2026-05-06 08:53 | 48.35126 | 11.79649 | 1475 ft | 21 kts | 84° |
| 2026-05-06 08:54 | 48.35144 | 11.79871 | 1479 ft | 21 kts | 83° |
| 2026-05-06 08:54 | 48.35161 | 11.80091 | 1477 ft | 21 kts | 83° |
| 2026-05-06 08:54 | 48.35178 | 11.80310 | 1485 ft | 21 kts | 83° |
| 2026-05-06 08:54 | 48.35193 | 11.80506 | 1486 ft | 18 kts | 83° |
| 2026-05-06 08:55 | 48.35210 | 11.80652 | 1478 ft | 8 kts | 46° |
| 2026-05-06 08:55 | 48.35255 | 11.80659 | 1481 ft | 4 kts | 353° |
| 2026-05-06 08:55 | 48.35257 | 11.80658 | 1475 ft | 0 kts | 353° |